Time;durP1;ratioP1;P1;durP2;ratioP2;P2;SDS_P1;SDS_P2;PMS_P1;PMS_P2;Temp;Humidity;BMP_temperature;BMP_pressure;BME280_temperature;BME280_humidity;BME280_pressure;Samples;Min_cycle;Max_cycle;Signal;HPM_P1;HPM_P2
2021/04/27 00:00:44;;;;;;;5.75;4.00;;;;;;;;;;5073232;28;20194;-70
2021/04/27 00:03:11;;;;;;;4.18;3.80;;;;;;;;;;5073664;28;20612;-69
2021/04/27 00:05:38;;;;;;;5.38;4.40;;;;;;;;;;5073710;28;20201;-70
2021/04/27 00:08:05;;;;;;;6.90;4.05;;;;;;;;;;5072943;28;20214;-69
2021/04/27 00:10:32;;;;;;;5.20;3.67;;;;;;;;;;5073916;28;20293;-69
2021/04/27 00:13:00;;;;;;;4.57;3.58;;;;;;;;;;5073842;28;20281;-69
2021/04/27 00:15:30;;;;;;;7.80;4.13;;;;;;;;;;5074360;28;20202;-70
2021/04/27 00:17:58;;;;;;;4.18;3.88;;;;;;;;;;5072778;28;20200;-69
2021/04/27 00:20:25;;;;;;;5.93;4.10;;;;;;;;;;5073105;28;20548;-70
2021/04/27 00:22:52;;;;;;;6.82;3.90;;;;;;;;;;5072775;28;20218;-70
2021/04/27 00:25:19;;;;;;;4.63;4.15;;;;;;;;;;5072974;28;20281;-70
2021/04/27 00:27:48;;;;;;;10.27;4.50;;;;;;;;;;5072994;28;20202;-70
2021/04/27 00:30:16;;;;;;;8.48;4.50;;;;;;;;;;5072934;28;20198;-70
2021/04/27 00:32:43;;;;;;;4.55;4.15;;;;;;;;;;5072676;28;20198;-70
2021/04/27 00:35:11;;;;;;;8.18;4.57;;;;;;;;;;5072806;28;20229;-70
2021/04/27 00:37:38;;;;;;;6.55;4.43;;;;;;;;;;5072875;28;20552;-69
2021/04/27 00:40:05;;;;;;;4.80;3.80;;;;;;;;;;5072866;28;20559;-70
2021/04/27 00:42:32;;;;;;;5.30;4.90;;;;;;;;;;5073171;28;20555;-70
2021/04/27 00:44:59;;;;;;;5.72;4.45;;;;;;;;;;5072583;28;20670;-69
2021/04/27 00:47:26;;;;;;;8.02;5.32;;;;;;;;;;5073085;28;20198;-69
2021/04/27 00:49:54;;;;;;;7.18;5.05;;;;;;;;;;5072937;28;20332;-69
2021/04/27 00:52:21;;;;;;;7.35;4.28;;;;;;;;;;5072456;28;20195;-69
2021/04/27 00:54:48;;;;;;;4.60;4.20;;;;;;;;;;5072660;28;20225;-70
2021/04/27 00:57:15;;;;;;;5.13;4.63;;;;;;;;;;5072471;28;20194;-70
2021/04/27 00:59:42;;;;;;;5.00;4.50;;;;;;;;;;5073227;28;20231;-70
2021/04/27 01:02:09;;;;;;;5.72;4.78;;;;;;;;;;5076946;28;20655;-69
2021/04/27 01:04:36;;;;;;;5.50;5.00;;;;;;;;;;5078795;28;20717;-70
2021/04/27 01:07:02;;;;;;;6.35;5.30;;;;;;;;;;5079861;28;20194;-70
2021/04/27 01:09:33;;;;;;;5.15;4.65;;;;;;;;;;5079079;28;20196;-70
2021/04/27 01:12:01;;;;;;;5.40;4.90;;;;;;;;;;5076823;28;20191;-70
2021/04/27 01:14:31;;;;;;;5.20;4.70;;;;;;;;;;5076114;28;20250;-69
2021/04/27 01:16:59;;;;;;;4.10;3.70;;;;;;;;;;5077340;28;20205;-70
2021/04/27 01:19:28;;;;;;;6.38;4.78;;;;;;;;;;5078027;28;20289;-70
2021/04/27 01:21:55;;;;;;;4.93;4.28;;;;;;;;;;5076380;28;20206;-69
2021/04/27 01:24:23;;;;;;;9.07;4.13;;;;;;;;;;5076289;28;20292;-69
2021/04/27 01:26:52;;;;;;;4.70;4.30;;;;;;;;;;5076260;28;20195;-69
2021/04/27 01:29:22;;;;;;;6.35;4.95;;;;;;;;;;5076470;28;20192;-69
2021/04/27 01:31:49;;;;;;;4.88;4.47;;;;;;;;;;5075727;28;20194;-69
2021/04/27 01:34:19;;;;;;;4.50;4.20;;;;;;;;;;5076010;28;20228;-68
2021/04/27 01:36:46;;;;;;;6.40;4.15;;;;;;;;;;5076023;28;20201;-69
2021/04/27 01:39:12;;;;;;;5.63;4.30;;;;;;;;;;5076271;28;20297;-69
2021/04/27 01:41:39;;;;;;;4.07;3.55;;;;;;;;;;5075791;28;20562;-69
2021/04/27 01:44:07;;;;;;;7.10;5.82;;;;;;;;;;5075709;28;20198;-69
2021/04/27 01:46:34;;;;;;;5.45;3.92;;;;;;;;;;5075841;28;20190;-69
2021/04/27 01:49:01;;;;;;;5.55;3.95;;;;;;;;;;5075433;28;20230;-69
2021/04/27 01:51:28;;;;;;;5.60;4.40;;;;;;;;;;5075744;28;20194;-69
2021/04/27 01:53:55;;;;;;;4.18;3.78;;;;;;;;;;5075328;28;20221;-69
2021/04/27 01:56:22;;;;;;;5.20;4.07;;;;;;;;;;5075328;28;20197;-69
2021/04/27 01:58:49;;;;;;;4.55;4.15;;;;;;;;;;5075591;28;20202;-69
2021/04/27 02:01:17;;;;;;;6.65;4.60;;;;;;;;;;5075549;28;20202;-70
2021/04/27 02:03:44;;;;;;;6.75;4.60;;;;;;;;;;5075676;28;20552;-69
2021/04/27 02:06:11;;;;;;;6.18;4.20;;;;;;;;;;5075293;28;20289;-70
2021/04/27 02:08:38;;;;;;;8.50;4.90;;;;;;;;;;5075273;28;20731;-70
2021/04/27 02:11:05;;;;;;;6.80;4.60;;;;;;;;;;5074296;28;20220;-69
2021/04/27 02:13:33;;;;;;;6.32;3.75;;;;;;;;;;5074707;28;20309;-69
2021/04/27 02:16:00;;;;;;;5.47;4.57;;;;;;;;;;5075047;28;20202;-69
2021/04/27 02:18:32;;;;;;;4.95;4.20;;;;;;;;;;5075744;28;20197;-69
2021/04/27 02:21:00;;;;;;;6.00;4.47;;;;;;;;;;5075608;28;20187;-69
2021/04/27 02:23:27;;;;;;;9.98;4.72;;;;;;;;;;5074875;28;20206;-70
2021/04/27 02:25:54;;;;;;;5.22;4.00;;;;;;;;;;5075188;28;20226;-69
2021/04/27 02:28:21;;;;;;;4.38;3.97;;;;;;;;;;5074797;28;20195;-69
2021/04/27 02:30:48;;;;;;;10.13;3.63;;;;;;;;;;5075242;28;20263;-69
2021/04/27 02:33:15;;;;;;;4.20;3.47;;;;;;;;;;5074587;28;20253;-69
2021/04/27 02:35:43;;;;;;;5.35;4.07;;;;;;;;;;5074926;28;20196;-69
2021/04/27 02:38:11;;;;;;;7.00;4.10;;;;;;;;;;5074555;28;20204;-70
2021/04/27 02:40:38;;;;;;;4.72;4.13;;;;;;;;;;5074489;28;20198;-70
2021/04/27 02:43:04;;;;;;;4.43;4.03;;;;;;;;;;5075358;28;20205;-70
2021/04/27 02:45:31;;;;;;;5.40;3.97;;;;;;;;;;5074733;28;20301;-70
2021/04/27 02:48:05;;;;;;;4.95;4.13;;;;;;;;;;5074428;28;20205;-70
2021/04/27 02:50:32;;;;;;;3.60;3.30;;;;;;;;;;5075007;28;20230;-70
2021/04/27 02:52:59;;;;;;;6.32;3.90;;;;;;;;;;5074571;28;20527;-70
2021/04/27 02:55:26;;;;;;;3.88;3.53;;;;;;;;;;5074117;28;20244;-70
2021/04/27 02:57:53;;;;;;;6.22;3.78;;;;;;;;;;5074528;28;20195;-70
2021/04/27 03:00:20;;;;;;;6.75;3.65;;;;;;;;;;5074771;28;20195;-70
2021/04/27 03:02:47;;;;;;;8.77;3.80;;;;;;;;;;5074744;28;20194;-70
2021/04/27 03:05:14;;;;;;;5.93;4.10;;;;;;;;;;5074324;28;20252;-69
2021/04/27 03:07:41;;;;;;;3.67;3.28;;;;;;;;;;5074361;28;20583;-70
2021/04/27 03:10:09;;;;;;;3.63;3.30;;;;;;;;;;5074331;28;20195;-70
2021/04/27 03:12:36;;;;;;;4.05;3.67;;;;;;;;;;5074208;28;20207;-70
2021/04/27 03:15:02;;;;;;;3.60;3.28;;;;;;;;;;5074044;28;20224;-70
2021/04/27 03:17:29;;;;;;;3.42;3.13;;;;;;;;;;5073692;28;20202;-69
2021/04/27 03:19:56;;;;;;;4.40;3.97;;;;;;;;;;5074326;28;20206;-70
2021/04/27 03:22:22;;;;;;;4.43;3.28;;;;;;;;;;5073967;28;20201;-69
2021/04/27 03:24:49;;;;;;;7.43;3.50;;;;;;;;;;5074461;28;20198;-70
2021/04/27 03:27:17;;;;;;;5.40;3.05;;;;;;;;;;5074225;28;20194;-69
2021/04/27 03:29:43;;;;;;;5.20;3.55;;;;;;;;;;5073886;28;20565;-70
2021/04/27 03:32:10;;;;;;;3.85;3.42;;;;;;;;;;5073510;28;20200;-69
2021/04/27 03:34:37;;;;;;;3.85;3.42;;;;;;;;;;5073706;28;20290;-70
2021/04/27 03:37:04;;;;;;;3.90;3.45;;;;;;;;;;5073753;28;20194;-70
2021/04/27 03:39:31;;;;;;;7.50;4.00;;;;;;;;;;5073865;28;20195;-69
2021/04/27 03:41:57;;;;;;;3.50;3.25;;;;;;;;;;5073290;28;20195;-70
2021/04/27 03:44:25;;;;;;;6.28;3.45;;;;;;;;;;5073610;28;20204;-70
2021/04/27 03:46:52;;;;;;;5.95;3.20;;;;;;;;;;5073292;28;20201;-70
2021/04/27 03:49:19;;;;;;;6.30;3.95;;;;;;;;;;5073452;28;20223;-69
2021/04/27 03:51:45;;;;;;;3.55;3.25;;;;;;;;;;5074785;28;20284;-69
2021/04/27 03:54:12;;;;;;;6.20;3.20;;;;;;;;;;5074077;28;20255;-69
2021/04/27 03:56:39;;;;;;;3.20;2.90;;;;;;;;;;5073437;28;20198;-69
2021/04/27 03:59:05;;;;;;;5.28;3.88;;;;;;;;;;5073455;28;20210;-69
2021/04/27 04:01:33;;;;;;;3.63;3.00;;;;;;;;;;5073358;28;20198;-70
2021/04/27 04:04:00;;;;;;;4.18;3.30;;;;;;;;;;5073657;28;20202;-69
2021/04/27 04:06:26;;;;;;;3.78;3.20;;;;;;;;;;5074094;28;20636;-69
2021/04/27 04:08:53;;;;;;;4.55;3.53;;;;;;;;;;5073608;28;20206;-70
2021/04/27 04:11:20;;;;;;;4.40;3.78;;;;;;;;;;5072918;28;20195;-70
2021/04/27 04:13:47;;;;;;;3.88;3.17;;;;;;;;;;5073350;28;20278;-70
2021/04/27 04:16:14;;;;;;;3.33;3.03;;;;;;;;;;5073247;28;20195;-68
2021/04/27 04:18:41;;;;;;;4.68;3.40;;;;;;;;;;5073177;28;20194;-69
2021/04/27 04:21:08;;;;;;;5.05;3.40;;;;;;;;;;5073122;28;20222;-69
2021/04/27 04:23:34;;;;;;;6.95;3.20;;;;;;;;;;5073035;28;20195;-68
2021/04/27 04:26:01;;;;;;;3.00;2.80;;;;;;;;;;5073142;28;20563;-68
2021/04/27 04:28:28;;;;;;;2.63;2.40;;;;;;;;;;5073725;28;20332;-69
2021/04/27 04:30:54;;;;;;;3.58;3.20;;;;;;;;;;5072752;28;20194;-69
2021/04/27 04:33:21;;;;;;;4.20;2.90;;;;;;;;;;5073414;28;20190;-69
2021/04/27 04:35:49;;;;;;;8.30;3.15;;;;;;;;;;5075633;28;20289;-69
2021/04/27 04:38:17;;;;;;;3.97;2.75;;;;;;;;;;5075776;28;20328;-70
2021/04/27 04:40:44;;;;;;;5.53;3.05;;;;;;;;;;5076454;28;20295;-68
2021/04/27 04:43:11;;;;;;;3.97;2.90;;;;;;;;;;5076756;28;20198;-68
2021/04/27 04:45:38;;;;;;;3.42;2.97;;;;;;;;;;5076640;28;20222;-68
2021/04/27 04:48:05;;;;;;;11.90;3.72;;;;;;;;;;5076996;28;20226;-68
2021/04/27 04:50:32;;;;;;;4.10;3.67;;;;;;;;;;5076762;28;20684;-69
2021/04/27 04:52:59;;;;;;;2.63;2.42;;;;;;;;;;5077146;28;20190;-68
2021/04/27 04:55:26;;;;;;;3.30;3.00;;;;;;;;;;5076631;28;20246;-68
2021/04/27 04:57:53;;;;;;;8.02;3.33;;;;;;;;;;5077073;28;20687;-68
2021/04/27 05:00:21;;;;;;;3.83;2.75;;;;;;;;;;5076325;28;20243;-68
2021/04/27 05:02:48;;;;;;;3.65;3.35;;;;;;;;;;5076300;28;20194;-70
2021/04/27 05:05:15;;;;;;;5.35;3.80;;;;;;;;;;5076205;28;20202;-71
2021/04/27 05:07:44;;;;;;;3.78;2.75;;;;;;;;;;5076288;28;20201;-69
2021/04/27 05:10:12;;;;;;;6.75;2.65;;;;;;;;;;5076286;28;20552;-69
2021/04/27 05:12:39;;;;;;;2.85;2.30;;;;;;;;;;5076892;28;20506;-69
2021/04/27 05:15:06;;;;;;;4.88;3.03;;;;;;;;;;5076330;28;20222;-69
2021/04/27 05:17:36;;;;;;;6.60;3.00;;;;;;;;;;5076573;28;20637;-69
2021/04/27 05:20:04;;;;;;;2.83;2.63;;;;;;;;;;5075995;28;20190;-69
2021/04/27 05:22:30;;;;;;;4.03;2.65;;;;;;;;;;5076013;28;20205;-69
2021/04/27 05:24:57;;;;;;;4.57;2.92;;;;;;;;;;5075968;28;20286;-68
2021/04/27 05:27:25;;;;;;;6.75;3.85;;;;;;;;;;5076425;28;20222;-69
2021/04/27 05:29:52;;;;;;;8.80;4.65;;;;;;;;;;5075666;28;20199;-68
2021/04/27 05:32:18;;;;;;;4.55;3.05;;;;;;;;;;5076637;28;20195;-74
2021/04/27 05:34:45;;;;;;;4.68;2.85;;;;;;;;;;5076064;28;20222;-64
2021/04/27 05:37:12;;;;;;;2.22;2.08;;;;;;;;;;5075928;28;20283;-67
2021/04/27 05:39:39;;;;;;;3.53;2.38;;;;;;;;;;5076353;28;20269;-67
2021/04/27 05:42:06;;;;;;;4.25;2.90;;;;;;;;;;5075934;28;20558;-67
2021/04/27 05:44:33;;;;;;;3.63;3.22;;;;;;;;;;5076352;28;20201;-67
2021/04/27 05:47:00;;;;;;;5.00;2.90;;;;;;;;;;5075531;28;20198;-67
2021/04/27 05:49:27;;;;;;;2.83;2.63;;;;;;;;;;5075640;28;20269;-67
2021/04/27 05:51:53;;;;;;;4.20;2.65;;;;;;;;;;5076474;28;20544;-67
2021/04/27 05:54:20;;;;;;;3.65;3.22;;;;;;;;;;5075445;28;20743;-67
2021/04/27 05:56:47;;;;;;;2.72;2.53;;;;;;;;;;5075748;28;20290;-67
2021/04/27 05:59:14;;;;;;;3.15;2.75;;;;;;;;;;5076025;28;20284;-66
2021/04/27 06:01:41;;;;;;;3.28;2.97;;;;;;;;;;5074707;28;20236;-67
2021/04/27 06:04:08;;;;;;;3.15;2.85;;;;;;;;;;5075126;28;20205;-67
2021/04/27 06:06:36;;;;;;;3.67;2.97;;;;;;;;;;5077008;28;20195;-68
2021/04/27 06:09:04;;;;;;;3.40;3.10;;;;;;;;;;5077549;28;20637;-68
2021/04/27 06:11:30;;;;;;;9.38;6.40;;;;;;;;;;5078084;28;20195;-68
2021/04/27 06:13:57;;;;;;;10.55;3.75;;;;;;;;;;5075863;28;20320;-68
2021/04/27 06:16:24;;;;;;;4.40;2.75;;;;;;;;;;5075235;28;20297;-68
2021/04/27 06:18:52;;;;;;;4.47;2.60;;;;;;;;;;5077114;28;20199;-68
2021/04/27 06:21:19;;;;;;;3.28;2.60;;;;;;;;;;5077255;28;20194;-68
2021/04/27 06:23:45;;;;;;;5.00;2.60;;;;;;;;;;5075227;28;20213;-68
2021/04/27 06:26:12;;;;;;;3.13;2.80;;;;;;;;;;5074718;28;20239;-68
2021/04/27 06:28:39;;;;;;;2.85;2.60;;;;;;;;;;5074771;28;20294;-68
2021/04/27 06:31:06;;;;;;;3.80;3.20;;;;;;;;;;5074974;28;20223;-67
2021/04/27 06:33:32;;;;;;;4.90;2.55;;;;;;;;;;5075262;28;20278;-68
2021/04/27 06:36:00;;;;;;;9.27;2.70;;;;;;;;;;5075443;28;20592;-67
2021/04/27 06:38:27;;;;;;;5.95;2.83;;;;;;;;;;5075037;28;20324;-67
2021/04/27 06:40:53;;;;;;;6.65;3.10;;;;;;;;;;5074866;28;20197;-67
2021/04/27 06:43:20;;;;;;;3.30;2.83;;;;;;;;;;5075029;28;20282;-68
2021/04/27 06:45:47;;;;;;;4.93;3.38;;;;;;;;;;5074823;28;20206;-67
2021/04/27 06:48:14;;;;;;;7.72;2.75;;;;;;;;;;5074296;28;20198;-68
2021/04/27 06:50:42;;;;;;;4.95;2.70;;;;;;;;;;5075000;28;20789;-67
2021/04/27 06:53:09;;;;;;;6.57;2.88;;;;;;;;;;5074581;28;20206;-67
2021/04/27 06:55:36;;;;;;;2.95;2.65;;;;;;;;;;5074382;28;20372;-67
2021/04/27 06:58:04;;;;;;;4.93;2.90;;;;;;;;;;5073367;28;20598;-68
2021/04/27 07:00:31;;;;;;;6.25;3.70;;;;;;;;;;5073957;28;20737;-67
2021/04/27 07:02:58;;;;;;;7.35;3.58;;;;;;;;;;5074316;28;20251;-67
2021/04/27 07:05:26;;;;;;;4.03;2.95;;;;;;;;;;5074146;28;20228;-67
2021/04/27 07:07:53;;;;;;;10.23;2.65;;;;;;;;;;5074195;28;20190;-68
2021/04/27 07:10:20;;;;;;;5.38;3.05;;;;;;;;;;5073903;28;20652;-67
2021/04/27 07:12:47;;;;;;;3.88;2.88;;;;;;;;;;5074197;28;20199;-67
2021/04/27 07:15:14;;;;;;;3.05;2.85;;;;;;;;;;5073715;28;20305;-68
2021/04/27 07:17:41;;;;;;;4.43;3.00;;;;;;;;;;5073659;28;20197;-67
2021/04/27 07:20:09;;;;;;;6.85;3.20;;;;;;;;;;5074058;28;20283;-67
2021/04/27 07:22:35;;;;;;;8.10;3.10;;;;;;;;;;5073831;28;20199;-67
2021/04/27 07:25:02;;;;;;;9.63;2.72;;;;;;;;;;5073499;28;20208;-68
2021/04/27 07:27:30;;;;;;;6.25;2.85;;;;;;;;;;5073513;28;20240;-67
2021/04/27 07:29:57;;;;;;;4.15;2.80;;;;;;;;;;5073722;28;20292;-68
2021/04/27 07:32:23;;;;;;;4.85;3.08;;;;;;;;;;5073366;28;20195;-67
2021/04/27 07:34:50;;;;;;;4.22;2.78;;;;;;;;;;5073244;28;20214;-67
2021/04/27 07:37:18;;;;;;;3.80;2.53;;;;;;;;;;5073938;28;20736;-67
2021/04/27 07:39:45;;;;;;;2.80;2.60;;;;;;;;;;5073550;28;20242;-68
2021/04/27 07:42:11;;;;;;;7.55;3.38;;;;;;;;;;5073739;28;20281;-67
2021/04/27 07:44:39;;;;;;;3.40;2.92;;;;;;;;;;5073199;28;20248;-67
2021/04/27 07:47:06;;;;;;;2.95;2.75;;;;;;;;;;5073461;28;20222;-67
2021/04/27 07:49:32;;;;;;;2.42;2.22;;;;;;;;;;5072918;28;20231;-68
2021/04/27 07:51:59;;;;;;;2.25;2.05;;;;;;;;;;5073078;28;20199;-67
2021/04/27 07:54:26;;;;;;;3.20;2.45;;;;;;;;;;5073465;28;20326;-68
2021/04/27 07:56:53;;;;;;;3.67;2.35;;;;;;;;;;5073327;28;20222;-68
2021/04/27 07:59:19;;;;;;;6.38;2.72;;;;;;;;;;5072975;28;20291;-68
2021/04/27 08:01:47;;;;;;;3.17;2.88;;;;;;;;;;5073020;28;20205;-68
2021/04/27 08:04:15;;;;;;;2.28;2.10;;;;;;;;;;5073755;28;20206;-67
2021/04/27 08:06:42;;;;;;;4.95;3.00;;;;;;;;;;5072805;28;20246;-67
2021/04/27 08:09:09;;;;;;;3.17;2.28;;;;;;;;;;5073003;28;20626;-68
2021/04/27 08:11:37;;;;;;;3.17;2.88;;;;;;;;;;5072811;28;20290;-67
2021/04/27 08:14:04;;;;;;;2.75;2.55;;;;;;;;;;5072778;28;20669;-67
2021/04/27 08:16:31;;;;;;;4.60;2.65;;;;;;;;;;5073373;28;20283;-68
2021/04/27 08:18:59;;;;;;;3.35;2.67;;;;;;;;;;5073232;28;20627;-68
2021/04/27 08:21:25;;;;;;;4.38;3.45;;;;;;;;;;5072766;28;20211;-67
2021/04/27 08:23:52;;;;;;;2.80;2.60;;;;;;;;;;5073073;28;20203;-68
2021/04/27 08:26:19;;;;;;;2.90;2.60;;;;;;;;;;5073085;28;20191;-67
2021/04/27 08:28:46;;;;;;;5.70;5.15;;;;;;;;;;5072965;28;20191;-67
2021/04/27 08:31:12;;;;;;;5.65;2.85;;;;;;;;;;5073501;28;20259;-68
2021/04/27 08:33:39;;;;;;;3.03;2.83;;;;;;;;;;5072914;28;20200;-68
2021/04/27 08:36:07;;;;;;;4.78;3.03;;;;;;;;;;5072721;28;20191;-67
2021/04/27 08:38:34;;;;;;;5.05;2.58;;;;;;;;;;5072666;28;20198;-67
2021/04/27 08:41:01;;;;;;;3.10;2.90;;;;;;;;;;5072897;28;20191;-67
2021/04/27 08:43:28;;;;;;;7.20;2.60;;;;;;;;;;5073072;28;20231;-68
2021/04/27 08:45:55;;;;;;;3.15;2.85;;;;;;;;;;5072864;28;20292;-68
2021/04/27 08:48:22;;;;;;;3.63;2.72;;;;;;;;;;5072706;28;20272;-66
2021/04/27 08:50:50;;;;;;;2.55;2.35;;;;;;;;;;5072825;28;20215;-68
2021/04/27 08:53:17;;;;;;;2.90;2.40;;;;;;;;;;5072406;28;20207;-67
2021/04/27 08:55:44;;;;;;;5.22;2.75;;;;;;;;;;5072568;28;20232;-68
2021/04/27 08:58:13;;;;;;;6.35;2.90;;;;;;;;;;5072677;28;20282;-67
2021/04/27 09:00:40;;;;;;;9.77;2.60;;;;;;;;;;5072273;28;20201;-68
2021/04/27 09:03:08;;;;;;;4.50;2.78;;;;;;;;;;5072157;28;20733;-68
2021/04/27 09:05:35;;;;;;;3.08;2.78;;;;;;;;;;5072482;28;20203;-68
2021/04/27 09:08:02;;;;;;;4.65;2.72;;;;;;;;;;5072487;28;20234;-67
2021/04/27 09:10:31;;;;;;;2.85;2.30;;;;;;;;;;5072170;28;20235;-68
2021/04/27 09:12:59;;;;;;;2.70;2.53;;;;;;;;;;5072444;28;20212;-66
2021/04/27 09:15:31;;;;;;;13.30;2.67;;;;;;;;;;5072638;28;20219;-67
2021/04/27 09:17:58;;;;;;;3.60;2.95;;;;;;;;;;5072538;28;20209;-67
2021/04/27 09:20:25;;;;;;;3.97;2.58;;;;;;;;;;5072128;28;20295;-67
2021/04/27 09:23:07;;;;;;;4.03;2.75;;;;;;;;;;5076197;28;20243;-67
2021/04/27 09:25:34;;;;;;;5.32;3.47;;;;;;;;;;5075879;28;20192;-67
2021/04/27 09:28:01;;;;;;;3.67;2.78;;;;;;;;;;5076602;28;20601;-67
2021/04/27 09:30:29;;;;;;;3.72;2.58;;;;;;;;;;5075784;28;20234;-67
2021/04/27 09:32:56;;;;;;;3.13;2.83;;;;;;;;;;5075989;28;20204;-67
2021/04/27 09:35:28;;;;;;;3.25;2.95;;;;;;;;;;5075729;28;20686;-67
2021/04/27 09:38:15;;;;;;;4.80;2.25;;;;;;;;;;5075608;28;20191;-67
2021/04/27 09:40:52;;;;;;;5.30;3.42;;;;;;;;;;5075933;28;20608;-67
2021/04/27 09:43:19;;;;;;;3.90;2.95;;;;;;;;;;5076022;28;20285;-67
2021/04/27 09:45:48;;;;;;;7.07;3.15;;;;;;;;;;5075536;28;20661;-67
2021/04/27 09:48:15;;;;;;;3.25;2.30;;;;;;;;;;5075830;28;20253;-67
2021/04/27 09:50:42;;;;;;;2.95;2.67;;;;;;;;;;5076311;28;20703;-67
2021/04/27 09:53:08;;;;;;;2.78;2.47;;;;;;;;;;5075374;28;20286;-67
2021/04/27 09:55:35;;;;;;;2.97;2.70;;;;;;;;;;5075609;28;20227;-67
2021/04/27 09:58:04;;;;;;;3.97;2.70;;;;;;;;;;5076064;28;20201;-68
2021/04/27 10:00:33;;;;;;;2.97;2.67;;;;;;;;;;5075228;28;20203;-68
2021/04/27 10:03:01;;;;;;;3.30;2.50;;;;;;;;;;5075438;28;20282;-68
2021/04/27 10:05:27;;;;;;;4.82;2.60;;;;;;;;;;5075456;28;20204;-67
2021/04/27 10:07:57;;;;;;;2.58;2.38;;;;;;;;;;5075453;28;20558;-67
2021/04/27 10:10:24;;;;;;;6.53;4.60;;;;;;;;;;5075285;28;20578;-67
2021/04/27 10:12:51;;;;;;;11.50;3.28;;;;;;;;;;5075351;28;20224;-67
2021/04/27 10:15:19;;;;;;;10.13;4.72;;;;;;;;;;5075451;28;20307;-68
2021/04/27 10:17:45;;;;;;;3.90;2.78;;;;;;;;;;5075364;28;20301;-68
2021/04/27 10:20:13;;;;;;;3.67;2.70;;;;;;;;;;5074800;28;20296;-67
2021/04/27 10:22:41;;;;;;;3.33;2.20;;;;;;;;;;5075043;28;20265;-67
2021/04/27 10:25:11;;;;;;;2.78;2.58;;;;;;;;;;5075082;28;20200;-69
2021/04/27 10:27:39;;;;;;;6.57;2.65;;;;;;;;;;5075257;28;20201;-67
2021/04/27 10:30:24;;;;;;;3.13;2.67;;;;;;;;;;5074692;28;20195;-67
2021/04/27 10:33:10;;;;;;;3.85;2.85;;;;;;;;;;5073654;28;20202;-68
2021/04/27 10:35:37;;;;;;;2.67;2.25;;;;;;;;;;5074909;28;20220;-68
2021/04/27 10:38:07;;;;;;;2.17;2.00;;;;;;;;;;5074731;28;20197;-68
2021/04/27 10:40:48;;;;;;;2.35;2.15;;;;;;;;;;5074439;28;20196;-68
2021/04/27 10:43:37;;;;;;;2.75;2.50;;;;;;;;;;5075038;28;20201;-67
2021/04/27 10:46:06;;;;;;;2.50;2.10;;;;;;;;;;5074440;28;20661;-67
2021/04/27 10:48:34;;;;;;;3.85;2.10;;;;;;;;;;5073964;28;20208;-67
2021/04/27 10:51:16;;;;;;;3.38;2.50;;;;;;;;;;5073970;28;20707;-67
2021/04/27 10:53:42;;;;;;;6.30;3.75;;;;;;;;;;5073999;28;20291;-68
2021/04/27 10:56:09;;;;;;;5.18;2.60;;;;;;;;;;5074298;28;20251;-67
2021/04/27 10:58:46;;;;;;;2.88;2.60;;;;;;;;;;5074283;28;20245;-67
2021/04/27 11:01:20;;;;;;;3.10;2.50;;;;;;;;;;5074089;28;20198;-67
2021/04/27 11:03:51;;;;;;;3.97;2.50;;;;;;;;;;5073801;28;20440;-68
2021/04/27 11:06:18;;;;;;;4.80;3.30;;;;;;;;;;5075571;28;20566;-68
2021/04/27 11:08:46;;;;;;;4.67;2.87;;;;;;;;;;5075474;28;20459;-68
2021/04/27 11:11:24;;;;;;;3.28;2.58;;;;;;;;;;5075231;28;20475;-67
2021/04/27 11:13:51;;;;;;;4.20;2.60;;;;;;;;;;5073691;28;20190;-68
2021/04/27 11:16:28;;;;;;;2.30;2.10;;;;;;;;;;5073657;28;20557;-68
2021/04/27 11:19:11;;;;;;;6.13;3.37;;;;;;;;;;5074805;28;20454;-68
2021/04/27 11:21:39;;;;;;;2.60;2.40;;;;;;;;;;5074556;28;20797;-67
2021/04/27 11:24:08;;;;;;;2.80;2.53;;;;;;;;;;5073319;28;20447;-67
2021/04/27 11:26:53;;;;;;;5.75;2.50;;;;;;;;;;5073738;28;20205;-68
2021/04/27 11:29:21;;;;;;;3.30;2.40;;;;;;;;;;5073627;28;20188;-68
2021/04/27 11:32:15;;;;;;;3.53;2.58;;;;;;;;;;5073641;28;20523;-68
2021/04/27 11:34:56;;;;;;;3.08;2.78;;;;;;;;;;5073721;28;20547;-68
2021/04/27 11:37:25;;;;;;;2.75;2.38;;;;;;;;;;5073395;28;20229;-67
2021/04/27 11:39:52;;;;;;;2.43;2.23;;;;;;;;;;5073753;28;20288;-68
2021/04/27 11:42:26;;;;;;;2.40;2.27;;;;;;;;;;5073723;28;20652;-67
2021/04/27 11:44:57;;;;;;;2.72;2.53;;;;;;;;;;5073117;28;20945;-68
2021/04/27 11:47:23;;;;;;;6.70;3.03;;;;;;;;;;5073849;28;20630;-67
2021/04/27 11:49:53;;;;;;;3.10;2.90;;;;;;;;;;5073372;28;20801;-67
2021/04/27 11:52:40;;;;;;;3.33;2.90;;;;;;;;;;5073380;28;20508;-68
2021/04/27 11:55:10;;;;;;;4.70;2.37;;;;;;;;;;5073121;28;20479;-68
2021/04/27 11:57:37;;;;;;;4.53;2.40;;;;;;;;;;5073443;28;20821;-68
2021/04/27 12:00:04;;;;;;;5.30;2.60;;;;;;;;;;5073027;28;20535;-68
2021/04/27 12:02:32;;;;;;;5.30;2.90;;;;;;;;;;5073268;28;20942;-67
2021/04/27 12:04:58;;;;;;;6.80;2.87;;;;;;;;;;5073776;28;20528;-69
2021/04/27 12:07:28;;;;;;;3.33;2.40;;;;;;;;;;5073802;28;20440;-69
2021/04/27 12:09:56;;;;;;;5.13;3.20;;;;;;;;;;5072824;28;20455;-68
2021/04/27 12:12:23;;;;;;;4.10;2.27;;;;;;;;;;5072711;28;20535;-68
2021/04/27 12:14:59;;;;;;;3.20;2.40;;;;;;;;;;5073184;28;20476;-68
2021/04/27 12:17:27;;;;;;;2.30;2.20;;;;;;;;;;5072781;28;20963;-68
2021/04/27 12:20:07;;;;;;;4.10;2.70;;;;;;;;;;5072689;28;20507;-68
2021/04/27 12:22:40;;;;;;;4.73;2.83;;;;;;;;;;5072922;28;20463;-68
2021/04/27 12:25:13;;;;;;;7.23;2.70;;;;;;;;;;5073789;28;20439;-68
2021/04/27 12:27:40;;;;;;;2.97;2.70;;;;;;;;;;5073071;28;20436;-68
2021/04/27 12:30:09;;;;;;;4.60;3.07;;;;;;;;;;5072900;28;20608;-68
2021/04/27 12:32:37;;;;;;;6.87;4.57;;;;;;;;;;5072727;28;20569;-67
2021/04/27 12:35:05;;;;;;;6.53;5.27;;;;;;;;;;5073277;28;20534;-66
2021/04/27 12:37:34;;;;;;;2.70;2.40;;;;;;;;;;5072530;28;20432;-66
2021/04/27 12:40:01;;;;;;;3.07;2.77;;;;;;;;;;5072858;28;20444;-67
2021/04/27 12:42:30;;;;;;;3.40;2.43;;;;;;;;;;5073163;28;20526;-67
2021/04/27 12:44:57;;;;;;;3.42;2.40;;;;;;;;;;5072454;28;20517;-70
2021/04/27 12:47:25;;;;;;;4.43;2.60;;;;;;;;;;5072652;28;20255;-67
2021/04/27 12:49:59;;;;;;;6.37;4.23;;;;;;;;;;5072161;28;20464;-67
2021/04/27 12:52:26;;;;;;;2.73;2.53;;;;;;;;;;5073137;28;20531;-67
2021/04/27 12:54:57;;;;;;;4.83;3.30;;;;;;;;;;5072873;28;20582;-67
2021/04/27 12:57:24;;;;;;;3.17;2.23;;;;;;;;;;5076271;28;20532;-66
2021/04/27 12:59:56;;;;;;;3.80;2.30;;;;;;;;;;5076685;28;20447;-66
2021/04/27 13:02:22;;;;;;;3.53;2.40;;;;;;;;;;5076892;28;20424;-67
2021/04/27 13:04:50;;;;;;;2.63;1.90;;;;;;;;;;5076260;28;20436;-66
2021/04/27 13:07:24;;;;;;;5.37;2.63;;;;;;;;;;5073040;28;20531;-66
2021/04/27 13:09:51;;;;;;;4.80;2.20;;;;;;;;;;5065714;28;20542;-67
2021/04/27 13:12:18;;;;;;;3.03;2.60;;;;;;;;;;5076011;28;20872;-68
2021/04/27 13:14:47;;;;;;;3.10;2.77;;;;;;;;;;5075649;28;20965;-67
2021/04/27 13:17:25;;;;;;;3.90;2.50;;;;;;;;;;5075802;28;20899;-67
2021/04/27 13:19:53;;;;;;;2.10;2.00;;;;;;;;;;5075984;28;20442;-67
2021/04/27 13:22:21;;;;;;;9.90;2.60;;;;;;;;;;5075755;28;20535;-70
2021/04/27 13:24:48;;;;;;;4.40;2.63;;;;;;;;;;5075878;28;20454;-67
2021/04/27 13:27:16;;;;;;;2.40;2.20;;;;;;;;;;5076007;28;20491;-67
2021/04/27 13:29:43;;;;;;;6.93;4.93;;;;;;;;;;5076372;28;20493;-67
2021/04/27 13:32:16;;;;;;;4.93;4.03;;;;;;;;;;5076071;28;20476;-67
2021/04/27 13:34:44;;;;;;;2.70;2.40;;;;;;;;;;5076184;28;20949;-66
2021/04/27 13:37:11;;;;;;;4.00;2.60;;;;;;;;;;5075587;28;20523;-67
2021/04/27 13:39:38;;;;;;;3.77;2.33;;;;;;;;;;5075835;28;20448;-68
2021/04/27 13:42:05;;;;;;;2.77;2.33;;;;;;;;;;5076055;28;20484;-67
2021/04/27 13:44:32;;;;;;;3.43;2.50;;;;;;;;;;5075760;28;20820;-68
2021/04/27 13:46:59;;;;;;;4.40;2.37;;;;;;;;;;5075792;28;20433;-67
2021/04/27 13:49:26;;;;;;;2.70;2.27;;;;;;;;;;5075355;28;20892;-68
2021/04/27 13:51:54;;;;;;;4.40;2.70;;;;;;;;;;5075892;28;20800;-68
2021/04/27 13:54:20;;;;;;;2.90;2.47;;;;;;;;;;5075287;28;20540;-67
2021/04/27 13:56:47;;;;;;;2.80;2.60;;;;;;;;;;5076263;28;20436;-68
2021/04/27 13:59:14;;;;;;;2.93;2.50;;;;;;;;;;5075182;28;20555;-68
2021/04/27 14:01:41;;;;;;;3.40;2.53;;;;;;;;;;5075787;28;20497;-67
2021/04/27 14:04:08;;;;;;;3.47;3.00;;;;;;;;;;5075307;28;20443;-67
2021/04/27 14:06:34;;;;;;;2.90;2.43;;;;;;;;;;5075119;28;20795;-68
2021/04/27 14:09:02;;;;;;;7.03;5.07;;;;;;;;;;5074679;28;20457;-67
2021/04/27 14:11:29;;;;;;;3.83;2.70;;;;;;;;;;5075446;28;20536;-67
2021/04/27 14:13:56;;;;;;;2.80;2.60;;;;;;;;;;5075395;28;20523;-68
2021/04/27 14:16:22;;;;;;;11.70;2.97;;;;;;;;;;5074695;28;20480;-67
2021/04/27 14:18:49;;;;;;;3.00;2.80;;;;;;;;;;5074787;28;20558;-68
2021/04/27 14:21:16;;;;;;;2.83;2.57;;;;;;;;;;5075657;28;20440;-68
2021/04/27 14:23:43;;;;;;;5.80;3.17;;;;;;;;;;5074803;28;20472;-66
2021/04/27 14:26:10;;;;;;;3.50;3.20;;;;;;;;;;5074842;28;20799;-68
2021/04/27 14:28:37;;;;;;;4.93;3.50;;;;;;;;;;5074527;28;20450;-68
2021/04/27 14:31:04;;;;;;;3.03;2.80;;;;;;;;;;5074893;28;20456;-68
2021/04/27 14:33:31;;;;;;;3.03;2.83;;;;;;;;;;5074573;28;20437;-69
2021/04/27 14:35:58;;;;;;;3.33;3.00;;;;;;;;;;5074718;28;20473;-68
2021/04/27 14:38:25;;;;;;;4.30;3.30;;;;;;;;;;5073962;28;20446;-67
2021/04/27 14:40:52;;;;;;;9.33;3.50;;;;;;;;;;5074081;28;20528;-67
2021/04/27 14:43:21;;;;;;;4.00;3.60;;;;;;;;;;5074619;28;20535;-67
2021/04/27 14:45:48;;;;;;;3.00;2.80;;;;;;;;;;5073994;28;20536;-67
2021/04/27 14:48:15;;;;;;;3.60;3.30;;;;;;;;;;5073762;28;20452;-67